createdAt,value
2018-07-24T00:01:22.075Z,99.90
2018-07-24T00:03:51.677Z,99.90
2018-07-24T00:06:21.151Z,99.90
2018-07-24T00:08:50.631Z,99.90
2018-07-24T00:11:20.196Z,99.90
2018-07-24T00:13:49.878Z,99.90
2018-07-24T00:16:19.473Z,99.90
2018-07-24T00:21:16.929Z,99.90
2018-07-24T00:23:45.367Z,99.90
2018-07-24T00:26:14.106Z,99.90
2018-07-24T00:28:43.585Z,99.90
2018-07-24T00:31:13.266Z,99.90
2018-07-24T00:33:42.800Z,99.90
2018-07-24T00:36:11.814Z,99.90
2018-07-24T00:38:41.279Z,99.90
2018-07-24T00:41:10.670Z,99.90
2018-07-24T00:43:40.255Z,99.90
2018-07-24T00:46:10.269Z,99.90
2018-07-24T00:48:39.970Z,99.90
2018-07-24T00:51:09.624Z,99.90
2018-07-24T00:53:38.969Z,99.90
2018-07-24T00:56:08.397Z,99.90
2018-07-24T00:58:37.882Z,99.90
2018-07-24T01:01:06.465Z,99.90
2018-07-24T01:03:35.795Z,99.90
2018-07-24T01:06:05.239Z,99.90
2018-07-24T01:08:35.062Z,99.90
2018-07-24T01:11:04.475Z,99.90
2018-07-24T01:16:03.032Z,99.90
2018-07-24T01:18:32.451Z,99.90
2018-07-24T01:21:02.367Z,99.90
2018-07-24T01:23:31.671Z,99.90
2018-07-24T01:26:02.097Z,99.90
2018-07-24T01:28:31.648Z,99.90
2018-07-24T01:31:01.423Z,99.90
2018-07-24T01:33:30.781Z,99.90
2018-07-24T01:36:00.183Z,99.90
2018-07-24T01:38:29.577Z,99.90
2018-07-24T01:40:59.000Z,99.90
2018-07-24T01:43:28.529Z,99.90
2018-07-24T01:45:57.871Z,99.90
2018-07-24T01:48:27.334Z,99.90
2018-07-24T01:50:56.657Z,99.90
2018-07-24T01:53:26.103Z,99.90
2018-07-24T01:55:55.620Z,99.90
2018-07-24T01:58:25.061Z,99.90
2018-07-24T02:00:54.687Z,99.90
2018-07-24T02:05:53.361Z,99.90
2018-07-24T02:08:22.689Z,99.90
2018-07-24T02:10:51.980Z,99.90
2018-07-24T02:13:21.474Z,99.90
2018-07-24T02:15:50.774Z,99.90
2018-07-24T02:18:20.355Z,99.90
2018-07-24T02:23:24.416Z,99.90
2018-07-24T02:25:54.025Z,99.90
2018-07-24T02:28:23.463Z,99.90
2018-07-24T02:30:53.153Z,99.90
2018-07-24T02:33:22.737Z,99.90
2018-07-24T02:35:52.260Z,99.90
2018-07-24T02:38:21.768Z,99.90
2018-07-24T02:40:51.216Z,99.90
2018-07-24T02:43:20.596Z,99.90
2018-07-24T02:45:50.137Z,99.90
2018-07-24T02:48:19.582Z,99.90
2018-07-24T02:50:49.092Z,99.90
2018-07-24T02:53:18.845Z,99.90
2018-07-24T02:55:48.787Z,99.90
2018-07-24T02:58:18.080Z,99.90
2018-07-24T03:00:47.856Z,99.90
2018-07-24T03:03:17.214Z,99.90
2018-07-24T03:05:46.872Z,99.90
2018-07-24T03:08:16.426Z,99.90
2018-07-24T03:10:45.903Z,99.90
2018-07-24T03:13:15.447Z,99.90
2018-07-24T03:15:44.865Z,99.90
2018-07-24T03:18:14.186Z,99.90
2018-07-24T03:20:43.914Z,99.90
2018-07-24T03:23:13.311Z,99.90
2018-07-24T03:25:42.742Z,99.90
2018-07-24T03:28:12.116Z,99.90
2018-07-24T03:30:41.502Z,99.90
2018-07-24T03:33:11.150Z,99.90
2018-07-24T03:35:40.689Z,99.90
2018-07-24T03:38:10.083Z,99.90
2018-07-24T03:40:39.400Z,99.90
2018-07-24T03:43:08.931Z,99.90
2018-07-24T03:45:38.296Z,99.90
2018-07-24T03:48:07.834Z,99.90
2018-07-24T03:50:37.422Z,99.90
2018-07-24T03:53:06.886Z,99.90
2018-07-24T03:55:36.368Z,99.90
2018-07-24T03:58:05.933Z,99.90
2018-07-24T04:00:35.600Z,99.90
2018-07-24T04:03:04.946Z,99.90
2018-07-24T04:05:34.264Z,99.90
2018-07-24T04:08:03.696Z,99.90
2018-07-24T04:10:33.045Z,99.90
2018-07-24T04:13:02.439Z,99.90
2018-07-24T04:15:31.994Z,99.90
2018-07-24T04:18:01.542Z,99.90
2018-07-24T04:20:31.090Z,99.90
2018-07-24T04:23:00.347Z,99.90
2018-07-24T04:25:29.639Z,99.90
2018-07-24T04:27:59.086Z,99.90
2018-07-24T04:30:28.457Z,99.90
2018-07-24T04:32:58.833Z,99.90
2018-07-24T04:35:28.167Z,99.90
2018-07-24T04:37:57.521Z,99.90
2018-07-24T04:40:26.928Z,99.90
2018-07-24T04:42:56.494Z,99.90
2018-07-24T04:45:25.990Z,99.90
2018-07-24T04:47:55.612Z,99.90
2018-07-24T04:50:25.250Z,99.90
2018-07-24T04:52:54.659Z,99.90
2018-07-24T04:55:24.280Z,99.90
2018-07-24T04:57:53.624Z,99.90
2018-07-24T05:00:23.075Z,99.90
2018-07-24T05:02:52.382Z,99.90
2018-07-24T05:05:21.886Z,99.90
2018-07-24T05:07:51.504Z,99.90
2018-07-24T05:10:20.907Z,99.90
2018-07-24T05:12:50.609Z,99.90
2018-07-24T05:15:20.604Z,99.90
2018-07-24T05:17:50.445Z,99.90
2018-07-24T05:20:19.965Z,99.90
2018-07-24T05:22:49.622Z,99.90
2018-07-24T05:25:19.187Z,99.90
2018-07-24T05:27:48.881Z,99.90
2018-07-24T05:30:18.887Z,99.90
2018-07-24T05:35:17.315Z,98.90
2018-07-24T05:37:46.668Z,97.80
2018-07-24T05:42:45.774Z,97.30
2018-07-24T05:45:15.138Z,95.10
2018-07-24T05:47:44.614Z,95.00
2018-07-24T05:50:14.040Z,93.40
2018-07-24T05:52:43.563Z,92.70
2018-07-24T05:55:13.131Z,91.40
2018-07-24T05:57:42.416Z,90.40
2018-07-24T06:00:11.947Z,88.80
2018-07-24T06:02:41.454Z,85.70
2018-07-24T06:05:10.947Z,84.10
2018-07-24T06:07:40.361Z,79.80
2018-07-24T06:10:09.756Z,78.80
2018-07-24T06:12:39.375Z,73.90
2018-07-24T06:15:09.323Z,73.20
2018-07-24T06:17:38.808Z,70.90
2018-07-24T06:20:09.673Z,69.90
2018-07-24T06:22:38.966Z,68.60
2018-07-24T06:25:08.412Z,66.80
2018-07-24T06:27:37.756Z,64.50
2018-07-24T06:30:07.620Z,62.40
2018-07-24T06:32:37.061Z,60.50
2018-07-24T06:35:06.463Z,61.30
2018-07-24T06:40:04.747Z,59.80
2018-07-24T06:42:34.023Z,59.70
2018-07-24T06:45:03.485Z,59.90
2018-07-24T06:47:32.889Z,58.60
2018-07-24T06:50:02.235Z,58.60
2018-07-24T06:52:31.559Z,57.40
2018-07-24T06:55:00.994Z,55.30
2018-07-24T06:57:30.399Z,54.50
2018-07-24T06:59:59.836Z,52.30
2018-07-24T07:02:29.596Z,53.00
2018-07-24T07:04:59.018Z,51.40
2018-07-24T07:07:28.402Z,51.80
2018-07-24T07:09:57.858Z,51.70
2018-07-24T07:12:27.317Z,51.50
2018-07-24T07:14:56.675Z,49.20
2018-07-24T07:17:26.326Z,50.70
2018-07-24T07:19:56.152Z,49.00
2018-07-24T07:22:25.947Z,47.70
2018-07-24T07:24:55.298Z,46.80
2018-07-24T07:27:24.735Z,46.70
2018-07-24T07:29:54.031Z,45.50
2018-07-24T07:32:23.419Z,46.00
2018-07-24T07:34:53.365Z,45.10
2018-07-24T07:37:22.815Z,44.40
2018-07-24T07:39:52.254Z,43.50
2018-07-24T07:42:21.833Z,42.90
2018-07-24T07:44:51.702Z,42.90
2018-07-24T07:47:21.503Z,41.30
2018-07-24T07:49:51.284Z,41.50
2018-07-24T07:52:20.911Z,40.80
2018-07-24T07:54:50.982Z,40.30
2018-07-24T07:57:20.551Z,41.80
2018-07-24T07:59:51.137Z,40.50
2018-07-24T08:02:20.574Z,40.30
2018-07-24T08:04:50.163Z,39.10
2018-07-24T08:07:19.524Z,36.90
2018-07-24T08:09:48.847Z,37.90
2018-07-24T08:12:18.223Z,36.70
2018-07-24T08:14:47.636Z,37.60
2018-07-24T08:17:16.966Z,36.60
2018-07-24T08:19:46.495Z,37.70
2018-07-24T08:22:15.904Z,37.70
2018-07-24T08:24:45.192Z,36.20
2018-07-24T08:27:14.547Z,37.40
2018-07-24T08:29:43.912Z,38.20
2018-07-24T08:32:13.252Z,38.60
2018-07-24T08:34:42.634Z,36.50
2018-07-24T08:37:12.067Z,36.40
2018-07-24T08:39:41.459Z,38.10
2018-07-24T08:42:10.908Z,37.30
2018-07-24T08:44:40.281Z,36.10
2018-07-24T08:47:09.788Z,36.10
2018-07-24T08:49:39.345Z,35.90
2018-07-24T08:54:38.167Z,36.20
2018-07-24T08:59:36.152Z,35.90
2018-07-24T09:02:05.643Z,35.40
2018-07-24T09:04:35.184Z,35.10
2018-07-24T09:07:04.529Z,35.70
2018-07-24T09:09:33.879Z,36.00
2018-07-24T09:12:03.356Z,35.10
2018-07-24T09:17:02.139Z,34.20
2018-07-24T09:19:31.699Z,34.70
2018-07-24T09:22:01.038Z,37.60
2018-07-24T09:24:30.908Z,35.00
2018-07-24T09:27:00.405Z,35.10
2018-07-24T09:29:30.075Z,36.50
2018-07-24T09:31:59.546Z,35.70
2018-07-24T09:34:28.973Z,36.60
2018-07-24T09:36:58.387Z,35.80
2018-07-24T09:39:27.731Z,35.20
2018-07-24T09:41:57.290Z,37.30
2018-07-24T09:44:26.650Z,37.30
2018-07-24T09:46:55.949Z,38.70
2018-07-24T09:49:25.255Z,37.60
2018-07-24T09:51:54.730Z,38.00
2018-07-24T09:54:24.127Z,37.60
2018-07-24T09:56:53.543Z,38.90
2018-07-24T09:59:22.905Z,39.80
2018-07-24T10:01:52.238Z,39.70
2018-07-24T10:04:21.551Z,38.40
2018-07-24T10:06:50.854Z,39.20
2018-07-24T10:09:20.455Z,36.40
2018-07-24T10:11:49.860Z,37.10
2018-07-24T10:14:19.216Z,36.60
2018-07-24T10:16:48.817Z,37.20
2018-07-24T10:19:18.116Z,37.90
2018-07-24T10:21:54.083Z,38.00
2018-07-24T10:24:23.533Z,37.10
2018-07-24T10:26:52.900Z,37.20
2018-07-24T10:29:22.280Z,38.90
2018-07-24T10:31:51.643Z,39.70
2018-07-24T10:34:21.144Z,39.70
2018-07-24T10:36:50.474Z,37.60
2018-07-24T10:39:19.780Z,36.50
2018-07-24T10:41:49.114Z,37.20
2018-07-24T10:44:18.403Z,37.30
2018-07-24T10:46:47.770Z,37.30
2018-07-24T10:49:17.256Z,40.90
2018-07-24T10:51:46.559Z,38.10
2018-07-24T10:54:15.942Z,36.50
2018-07-24T10:56:45.395Z,36.50
2018-07-24T10:59:14.690Z,37.60
2018-07-24T11:02:50.664Z,36.10
2018-07-24T11:05:20.235Z,36.20
2018-07-24T11:07:49.819Z,38.00
2018-07-24T11:10:37.079Z,38.20
2018-07-24T11:32:16.654Z,40.60
2018-07-24T11:34:46.086Z,38.60
2018-07-24T11:37:15.483Z,40.30
2018-07-24T11:39:44.824Z,40.30
2018-07-24T11:42:14.164Z,40.80
2018-07-24T11:44:43.521Z,39.40
2018-07-24T11:47:13.118Z,42.50
2018-07-24T11:49:42.415Z,41.10
2018-07-24T11:52:11.914Z,42.00
2018-07-24T11:54:41.488Z,42.80
2018-07-24T13:16:34.162Z,45.20
2018-07-24T13:19:03.635Z,46.40
2018-07-24T13:21:32.901Z,45.10
2018-07-24T13:24:02.304Z,43.90
2018-07-24T13:26:31.762Z,44.60
2018-07-24T13:29:01.396Z,44.40
2018-07-24T13:31:30.743Z,46.90
2018-07-24T13:34:00.036Z,45.70
2018-07-24T13:36:29.395Z,45.50
2018-07-24T13:38:58.765Z,45.20
2018-07-24T13:41:28.103Z,48.50
2018-07-24T13:43:57.578Z,46.00
2018-07-24T13:46:26.892Z,44.10
2018-07-24T13:48:56.321Z,46.20
2018-07-24T13:51:25.658Z,45.30
2018-07-24T13:53:56.255Z,44.80
2018-07-24T13:56:25.786Z,45.90
2018-07-24T13:58:55.331Z,48.50
2018-07-24T14:01:25.050Z,45.30
2018-07-24T14:03:54.347Z,44.20
2018-07-24T14:06:25.119Z,45.30
2018-07-24T14:08:54.443Z,46.40
2018-07-24T14:11:23.909Z,46.40
2018-07-24T14:13:53.426Z,44.70
2018-07-24T14:16:23.230Z,45.40
2018-07-24T14:18:52.727Z,47.90
2018-07-24T14:21:22.347Z,46.50
2018-07-24T14:23:52.488Z,46.00
2018-07-24T14:26:22.253Z,45.80
2018-07-24T14:28:51.683Z,48.50
2018-07-24T14:31:21.124Z,46.80
2018-07-24T14:33:50.487Z,47.40
2018-07-24T14:36:19.917Z,47.40
2018-07-24T14:38:49.609Z,48.30
2018-07-24T14:41:18.948Z,50.20
2018-07-24T14:46:17.392Z,48.70
2018-07-24T14:48:46.796Z,47.80
2018-07-24T14:51:16.202Z,48.60
2018-07-24T14:53:45.713Z,48.60
2018-07-24T14:56:15.041Z,48.10
2018-07-24T14:58:44.439Z,48.20
2018-07-24T15:01:13.880Z,50.90
2018-07-24T15:03:43.232Z,48.00
2018-07-24T15:06:12.579Z,47.40
2018-07-24T15:08:42.159Z,48.20
2018-07-24T15:11:11.511Z,47.60
2018-07-24T15:13:40.929Z,47.00
2018-07-24T15:16:10.590Z,46.50
2018-07-24T15:18:40.068Z,47.60
2018-07-24T15:21:09.502Z,47.30
2018-07-24T15:23:39.139Z,46.90
2018-07-24T15:26:08.780Z,47.70
2018-07-24T15:28:38.181Z,46.40
2018-07-24T15:31:07.780Z,46.60
2018-07-24T15:33:37.234Z,47.10
2018-07-24T15:36:06.663Z,46.40
2018-07-24T15:38:36.288Z,45.90
2018-07-24T15:41:05.945Z,46.40
2018-07-24T15:43:35.495Z,46.50
2018-07-24T15:46:04.928Z,46.90
2018-07-24T15:48:34.311Z,45.70
2018-07-24T15:51:03.923Z,46.00
2018-07-24T15:53:33.354Z,47.10
2018-07-24T15:56:02.885Z,46.50
2018-07-24T15:58:32.222Z,46.60
2018-07-24T16:01:01.700Z,47.90
2018-07-24T16:03:31.244Z,46.70
2018-07-24T16:06:00.761Z,47.10
2018-07-24T16:08:30.202Z,46.70
2018-07-24T16:10:59.715Z,47.50
2018-07-24T16:13:29.226Z,47.60
2018-07-24T16:15:58.943Z,46.50
2018-07-24T16:18:28.453Z,47.10
2018-07-24T16:20:58.105Z,46.80
2018-07-24T16:23:27.541Z,47.70
2018-07-24T16:25:56.960Z,47.50
2018-07-24T16:28:26.280Z,47.90
2018-07-24T16:30:55.779Z,47.30
2018-07-24T16:33:25.350Z,46.60
2018-07-24T16:35:54.738Z,47.10
2018-07-24T16:38:24.321Z,47.40
2018-07-24T16:40:53.659Z,46.80
2018-07-24T16:43:23.243Z,47.50
2018-07-24T16:45:52.603Z,47.10
2018-07-24T16:48:22.171Z,47.50
2018-07-24T16:50:54.518Z,46.60
2018-07-24T16:53:24.041Z,48.20
2018-07-24T16:55:53.688Z,47.90
2018-07-24T16:58:23.423Z,48.10
2018-07-24T17:03:22.103Z,49.20
2018-07-24T17:05:51.680Z,48.70
2018-07-24T17:08:21.603Z,49.40
2018-07-24T17:10:51.098Z,48.70
2018-07-24T17:13:20.636Z,47.90
2018-07-24T17:15:50.142Z,47.90
2018-07-24T17:18:19.578Z,47.80
2018-07-24T17:20:49.261Z,49.40
2018-07-24T17:23:18.763Z,49.60
2018-07-24T17:25:48.150Z,50.40
2018-07-24T17:28:17.687Z,49.70
2018-07-24T17:30:47.168Z,50.30
2018-07-24T17:33:16.600Z,50.30
2018-07-24T17:38:15.125Z,50.70
2018-07-24T17:40:44.620Z,49.90
2018-07-24T17:43:14.210Z,50.00
2018-07-24T17:45:43.620Z,50.50
2018-07-24T17:48:13.024Z,49.80
2018-07-24T17:50:42.320Z,50.30
2018-07-24T17:55:40.863Z,50.50
2018-07-24T17:58:10.203Z,51.30
2018-07-24T18:03:08.541Z,52.30
2018-07-24T18:05:37.984Z,51.50
2018-07-24T18:08:07.365Z,52.20
2018-07-24T18:10:36.686Z,51.70
2018-07-24T18:13:06.390Z,51.20
2018-07-24T18:15:35.759Z,51.80
2018-07-24T18:18:05.134Z,52.30
2018-07-24T18:20:34.464Z,52.10
2018-07-24T18:23:03.919Z,52.90
2018-07-24T18:25:33.247Z,53.30
2018-07-24T18:28:02.647Z,53.50
2018-07-24T18:30:32.896Z,53.60
2018-07-24T18:33:02.733Z,54.00
2018-07-24T18:35:32.186Z,54.80
2018-07-24T18:38:02.483Z,55.10
2018-07-24T18:40:32.291Z,56.40
2018-07-24T18:43:01.758Z,55.30
2018-07-24T18:45:31.241Z,57.10
2018-07-24T18:48:00.838Z,56.80
2018-07-24T18:50:30.314Z,57.20
2018-07-24T18:52:59.799Z,58.70
2018-07-24T18:55:29.548Z,58.70
2018-07-24T18:57:59.060Z,58.70
2018-07-24T19:02:57.708Z,59.60
2018-07-24T19:05:27.388Z,59.90
2018-07-24T19:07:56.864Z,61.00
2018-07-24T19:10:26.546Z,61.40
2018-07-24T19:12:56.188Z,62.10
2018-07-24T19:15:26.052Z,62.20
2018-07-24T19:17:55.684Z,63.10
2018-07-24T19:22:54.350Z,63.90
2018-07-24T19:25:23.899Z,63.90
2018-07-24T19:30:22.594Z,64.70
2018-07-24T19:35:21.265Z,69.00
2018-07-24T19:37:50.769Z,70.30
2018-07-24T19:40:20.436Z,72.00
2018-07-24T19:42:50.143Z,72.30
2018-07-24T19:45:19.642Z,72.40
2018-07-24T19:47:49.075Z,74.20
2018-07-24T19:50:18.815Z,72.70
2018-07-24T19:52:48.247Z,75.00
2018-07-24T19:55:17.828Z,77.40
2018-07-24T19:57:47.343Z,79.70
2018-07-24T20:00:17.159Z,79.80
2018-07-24T20:02:46.795Z,78.50
2018-07-24T20:05:16.314Z,78.80
2018-07-24T20:07:46.069Z,78.70
2018-07-24T20:10:15.900Z,80.00
2018-07-24T20:12:45.320Z,81.40
2018-07-24T20:15:18.448Z,83.40
2018-07-24T20:17:49.119Z,84.60
2018-07-24T20:20:18.622Z,86.40
2018-07-24T20:22:48.273Z,85.80
2018-07-24T20:25:17.691Z,89.00
2018-07-24T20:27:47.150Z,90.10
2018-07-24T20:32:45.676Z,90.20
2018-07-24T20:35:15.369Z,91.10
2018-07-24T20:37:45.127Z,92.20
2018-07-24T20:40:14.689Z,92.40
2018-07-24T20:42:44.487Z,92.50
2018-07-24T20:45:13.991Z,93.20
2018-07-24T20:50:12.390Z,94.50
2018-07-24T20:55:10.888Z,95.80
2018-07-24T20:57:40.367Z,96.70
2018-07-24T21:00:09.919Z,96.70
2018-07-24T21:02:39.552Z,96.50
2018-07-24T21:05:09.059Z,98.40
2018-07-24T21:07:38.737Z,98.90
2018-07-24T21:10:13.478Z,99.10
2018-07-24T21:12:43.731Z,99.90
2018-07-24T21:15:13.107Z,99.90
2018-07-24T21:17:42.473Z,99.90
2018-07-24T21:20:12.082Z,99.90
2018-07-24T21:22:41.551Z,99.90
2018-07-24T21:25:11.207Z,99.90
2018-07-24T21:27:40.647Z,99.90
2018-07-24T21:30:10.481Z,99.90
2018-07-24T21:32:39.769Z,99.90
2018-07-24T21:35:09.431Z,99.90
2018-07-24T21:37:38.895Z,99.90
2018-07-24T21:40:08.376Z,99.90
2018-07-24T21:42:38.032Z,99.90
2018-07-24T21:45:07.438Z,99.90
2018-07-24T21:47:36.882Z,99.90
2018-07-24T21:50:06.374Z,99.90
2018-07-24T21:52:35.909Z,99.90
2018-07-24T21:55:05.277Z,99.90
2018-07-24T21:57:34.711Z,99.90
2018-07-24T22:00:05.747Z,99.90
2018-07-24T22:02:35.219Z,99.90
2018-07-24T22:05:04.792Z,99.90
2018-07-24T22:07:35.136Z,99.90
2018-07-24T22:10:09.048Z,99.90
2018-07-24T22:12:38.624Z,99.90
2018-07-24T22:15:18.165Z,99.90
2018-07-24T22:17:47.834Z,99.90
2018-07-24T22:20:18.155Z,99.90
2018-07-24T22:22:47.730Z,99.90
2018-07-24T22:25:17.487Z,99.90
2018-07-24T22:27:47.093Z,99.90
2018-07-24T22:30:17.119Z,99.90
2018-07-24T22:32:46.570Z,99.90
2018-07-24T22:35:15.923Z,99.90
2018-07-24T22:37:45.288Z,99.90
2018-07-24T22:40:15.063Z,99.90
2018-07-24T22:42:44.520Z,99.90
2018-07-24T22:45:14.191Z,99.90
2018-07-24T22:47:43.672Z,99.90
2018-07-24T22:50:13.461Z,99.90
2018-07-24T22:52:43.333Z,99.90
2018-07-24T22:55:13.143Z,99.90
2018-07-24T22:57:42.790Z,99.90
2018-07-24T23:00:12.437Z,99.90
2018-07-24T23:02:42.108Z,99.90
2018-07-24T23:05:11.748Z,99.90
2018-07-24T23:07:41.418Z,99.90
2018-07-24T23:10:10.938Z,99.90
2018-07-24T23:12:40.460Z,99.90
2018-07-24T23:15:09.930Z,99.90
2018-07-24T23:17:39.415Z,99.90
2018-07-24T23:20:08.986Z,99.90
2018-07-24T23:22:38.385Z,99.90
2018-07-24T23:25:07.914Z,99.90
2018-07-24T23:27:37.251Z,99.90
2018-07-24T23:30:06.739Z,99.90
2018-07-24T23:32:36.194Z,99.90
2018-07-24T23:35:05.783Z,99.90
2018-07-24T23:37:35.306Z,99.90
2018-07-24T23:40:04.949Z,99.90
2018-07-24T23:42:34.433Z,99.90
2018-07-24T23:45:04.003Z,99.90
2018-07-24T23:47:33.263Z,99.90
2018-07-24T23:50:02.722Z,99.90
2018-07-24T23:52:32.533Z,99.90
2018-07-24T23:55:02.206Z,99.90
2018-07-24T23:57:31.748Z,99.90
